Time;durP1;ratioP1;P1;durP2;ratioP2;P2;SDS_P1;SDS_P2;PMS_P1;PMS_P2;Temp;Humidity;BMP_temperature;BMP_pressure;BME280_temperature;BME280_humidity;BME280_pressure;Samples;Min_cycle;Max_cycle;Signal;HPM_P1;HPM_P2
2023/04/14 00:00:30;;;;;;;3.90;1.02;;;19.20;99.90;;;;;;5097741;27;20302;-75
2023/04/14 00:03:02;;;;;;;4.70;1.10;;;19.40;99.90;;;;;;5097764;27;20198;-75
2023/04/14 00:05:35;;;;;;;2.88;0.77;;;19.40;99.90;;;;;;5098225;27;20275;-78
2023/04/14 00:08:07;;;;;;;2.53;0.80;;;19.40;99.90;;;;;;5109018;27;20794;-75
2023/04/14 00:10:38;;;;;;;3.55;0.80;;;19.40;99.90;;;;;;5098947;27;20201;-76
2023/04/14 00:13:09;;;;;;;3.75;1.08;;;19.30;99.90;;;;;;5096965;27;20202;-75
2023/04/14 00:15:42;;;;;;;4.30;1.00;;;19.30;99.90;;;;;;5097553;27;20204;-76
2023/04/14 00:18:13;;;;;;;3.55;0.90;;;19.30;99.90;;;;;;5097316;27;20251;-76
2023/04/14 00:20:46;;;;;;;4.03;0.93;;;19.30;99.90;;;;;;5097906;27;20211;-75
2023/04/14 00:23:17;;;;;;;5.13;1.02;;;19.30;99.90;;;;;;5102618;27;20408;-75
2023/04/14 00:25:48;;;;;;;5.63;1.25;;;19.30;99.90;;;;;;5103779;27;20229;-75
2023/04/14 00:28:20;;;;;;;5.93;1.40;;;19.40;99.90;;;;;;5105648;27;20205;-74
2023/04/14 00:30:51;;;;;;;6.03;0.93;;;19.50;99.90;;;;;;5107718;27;20222;-74
2023/04/14 00:33:22;;;;;;;3.85;0.82;;;19.50;99.90;;;;;;5106143;27;20202;-75
2023/04/14 00:35:55;;;;;;;3.75;0.85;;;19.50;99.90;;;;;;5098804;27;21538;-75
2023/04/14 00:38:26;;;;;;;6.15;1.17;;;19.60;99.90;;;;;;5099210;27;22021;-76
2023/04/14 00:40:57;;;;;;;2.30;0.70;;;19.70;99.90;;;;;;5097914;27;20202;-76
2023/04/14 00:43:28;;;;;;;2.85;0.90;;;19.80;99.90;;;;;;5096748;27;20195;-76
2023/04/14 00:46:00;;;;;;;3.08;0.90;;;20.00;99.90;;;;;;5095540;27;20225;-75
2023/04/14 00:48:31;;;;;;;3.97;1.08;;;20.00;99.90;;;;;;5103218;27;20305;-75
2023/04/14 00:51:04;;;;;;;3.97;1.00;;;20.10;99.90;;;;;;5106509;27;20201;-76
2023/04/14 00:53:35;;;;;;;2.60;0.88;;;20.20;99.90;;;;;;5101906;27;20199;-75
2023/04/14 00:56:07;;;;;;;3.60;0.82;;;20.30;99.90;;;;;;5099171;27;20230;-76
2023/04/14 00:58:38;;;;;;;4.28;1.02;;;20.40;99.90;;;;;;5095999;27;20564;-75
2023/04/14 01:01:10;;;;;;;5.38;1.13;;;20.50;99.90;;;;;;5103671;27;20209;-75
2023/04/14 01:03:41;;;;;;;7.55;1.55;;;20.60;99.90;;;;;;5099539;27;20201;-75
2023/04/14 01:06:14;;;;;;;8.48;1.67;;;20.60;99.90;;;;;;5098038;27;20242;-75
2023/04/14 01:08:46;;;;;;;3.45;0.95;;;20.60;99.90;;;;;;5101179;27;20194;-75
2023/04/14 01:11:24;;;;;;;5.70;1.25;;;20.60;99.90;;;;;;5102977;27;20230;-75
2023/04/14 01:14:02;;;;;;;6.85;1.10;;;20.60;99.90;;;;;;5098720;27;20570;-75
2023/04/14 01:16:35;;;;;;;4.07;1.10;;;20.50;99.90;;;;;;5099471;27;20202;-75
2023/04/14 01:19:32;;;;;;;4.38;1.20;;;20.40;99.90;;;;;;5098869;27;20195;-74
2023/04/14 01:22:10;;;;;;;3.63;1.05;;;20.10;99.90;;;;;;5103638;27;20725;-75
2023/04/14 01:25:00;;;;;;;3.75;0.80;;;19.90;99.90;;;;;;5096757;27;20359;-75
2023/04/14 01:27:42;;;;;;;5.93;1.05;;;19.80;99.90;;;;;;5097058;27;20208;-75
2023/04/14 01:30:31;;;;;;;4.93;1.05;;;19.70;99.90;;;;;;5096743;27;20236;-75
2023/04/14 01:33:09;;;;;;;3.67;0.98;;;19.60;99.90;;;;;;5095825;27;20759;-75
2023/04/14 01:35:44;;;;;;;3.47;1.00;;;19.60;99.90;;;;;;5098277;27;20211;-75
2023/04/14 01:38:21;;;;;;;3.70;1.10;;;19.40;99.90;;;;;;5093222;27;22033;-75
2023/04/14 01:40:55;;;;;;;2.38;0.80;;;19.40;99.90;;;;;;5095260;27;20205;-75
2023/04/14 01:43:30;;;;;;;2.75;0.85;;;19.40;99.90;;;;;;5097115;27;20193;-75
2023/04/14 01:46:06;;;;;;;2.20;1.00;;;19.30;99.90;;;;;;5098358;27;20225;-75
2023/04/14 01:48:40;;;;;;;2.58;0.93;;;19.20;99.90;;;;;;5095828;27;20198;-75
2023/04/14 01:51:13;;;;;;;5.57;1.10;;;19.20;99.90;;;;;;5102203;27;21194;-75
2023/04/14 01:53:46;;;;;;;2.58;0.90;;;19.30;99.90;;;;;;5124088;27;20199;-75
2023/04/14 01:56:21;;;;;;;3.33;1.10;;;19.20;99.90;;;;;;5131402;27;20198;-76
2023/04/14 01:58:55;;;;;;;1.20;0.63;;;19.20;99.90;;;;;;5129192;27;20233;-75
2023/04/14 02:01:28;;;;;;;4.03;1.27;;;19.30;99.90;;;;;;5128271;27;20194;-76
2023/04/14 02:04:02;;;;;;;5.38;1.33;;;19.40;99.90;;;;;;5131062;27;20194;-76
2023/04/14 02:06:34;;;;;;;2.85;1.30;;;19.40;99.90;;;;;;5131152;27;20224;-76
2023/04/14 02:09:09;;;;;;;2.10;0.70;;;19.50;99.90;;;;;;5130295;27;20197;-76
2023/04/14 02:11:41;;;;;;;3.60;0.90;;;19.50;99.90;;;;;;5131385;27;20209;-76
2023/04/14 02:14:12;;;;;;;2.58;0.93;;;19.50;99.90;;;;;;5120251;27;20198;-76
2023/04/14 02:16:44;;;;;;;2.30;1.02;;;19.70;99.90;;;;;;5122982;27;20194;-77
2023/04/14 02:19:20;;;;;;;2.63;0.80;;;19.80;99.90;;;;;;5125231;27;20208;-76
2023/04/14 02:21:53;;;;;;;6.63;1.50;;;19.90;99.90;;;;;;5114245;27;20217;-77
2023/04/14 02:24:25;;;;;;;2.40;0.98;;;20.10;99.90;;;;;;5123589;27;20236;-77
2023/04/14 02:27:02;;;;;;;2.72;1.00;;;20.20;99.90;;;;;;5119406;27;20229;-77
2023/04/14 02:29:35;;;;;;;5.60;1.08;;;20.30;99.90;;;;;;5126331;27;20205;-75
2023/04/14 02:32:10;;;;;;;6.43;1.00;;;20.30;99.90;;;;;;5122825;27;20201;-77
2023/04/14 02:34:51;;;;;;;3.72;1.20;;;20.40;99.90;;;;;;5130609;27;20654;-76
2023/04/14 02:37:27;;;;;;;5.50;1.17;;;20.50;99.90;;;;;;5130772;27;20569;-78
2023/04/14 02:40:05;;;;;;;4.72;1.10;;;20.60;99.90;;;;;;5128837;27;20221;-77
2023/04/14 02:42:39;;;;;;;5.45;1.30;;;20.70;99.90;;;;;;5126134;27;20557;-77
2023/04/14 02:45:15;;;;;;;3.58;1.10;;;20.70;99.90;;;;;;5125921;27;20197;-78
2023/04/14 02:47:51;;;;;;;6.38;1.55;;;20.80;99.90;;;;;;5124346;27;20194;-78
2023/04/14 02:50:25;;;;;;;6.70;1.42;;;20.80;99.90;;;;;;5129471;27;20198;-77
2023/04/14 02:52:59;;;;;;;2.63;1.00;;;21.00;99.90;;;;;;5129053;27;20189;-78
2023/04/14 02:55:32;;;;;;;9.35;1.60;;;21.00;99.90;;;;;;5122902;27;20574;-78
2023/04/14 02:58:04;;;;;;;4.53;1.40;;;21.00;99.90;;;;;;5128202;27;20204;-77
2023/04/14 03:00:38;;;;;;;6.47;1.42;;;20.90;99.90;;;;;;5128354;27;20208;-77
2023/04/14 03:03:11;;;;;;;6.20;1.35;;;21.00;99.90;;;;;;5130341;27;20585;-77
2023/04/14 03:05:45;;;;;;;6.05;1.73;;;21.00;99.90;;;;;;5131049;27;20221;-77
2023/04/14 03:08:18;;;;;;;6.15;1.00;;;21.00;99.90;;;;;;5127373;27;20202;-77
2023/04/14 03:10:51;;;;;;;5.82;1.50;;;21.10;99.90;;;;;;5123714;27;20202;-77
2023/04/14 03:13:24;;;;;;;3.25;1.13;;;21.10;99.90;;;;;;5115658;27;20564;-77
2023/04/14 03:15:55;;;;;;;7.45;1.20;;;21.20;99.90;;;;;;5126836;27;20585;-77
2023/04/14 03:18:27;;;;;;;3.50;1.10;;;21.20;99.90;;;;;;5125889;28;20601;-77
2023/04/14 03:21:02;;;;;;;5.47;1.08;;;21.30;99.90;;;;;;5125442;27;20189;-78
2023/04/14 03:23:33;;;;;;;4.85;0.90;;;21.50;99.90;;;;;;5128531;27;20236;-76
2023/04/14 03:26:05;;;;;;;5.85;1.48;;;21.50;99.90;;;;;;5128419;27;20262;-78
2023/04/14 03:28:40;;;;;;;7.28;1.23;;;21.60;99.90;;;;;;5129097;27;20200;-77
2023/04/14 03:31:15;;;;;;;11.20;1.60;;;21.70;99.90;;;;;;5127849;27;20197;-77
2023/04/14 03:33:52;;;;;;;5.68;0.95;;;21.80;99.90;;;;;;5127195;27;20250;-77
2023/04/14 03:36:27;;;;;;;7.25;1.38;;;21.90;99.90;;;;;;5131432;27;20204;-78
2023/04/14 03:39:00;;;;;;;5.75;1.90;;;22.00;99.90;;;;;;5126469;27;20274;-78
2023/04/14 03:41:34;;;;;;;3.88;1.00;;;22.10;99.90;;;;;;5125634;27;20194;-77
2023/04/14 03:44:13;;;;;;;4.32;1.00;;;22.20;99.90;;;;;;5130772;27;20220;-76
2023/04/14 03:46:44;;;;;;;7.18;0.93;;;22.30;99.90;;;;;;5134343;27;20258;-77
2023/04/14 03:49:19;;;;;;;5.53;1.30;;;22.30;99.90;;;;;;5135183;27;20278;-77
2023/04/14 03:51:53;;;;;;;5.57;1.27;;;22.30;99.90;;;;;;5132134;27;21530;-77
2023/04/14 03:54:29;;;;;;;7.05;1.40;;;22.30;99.90;;;;;;5129603;27;20193;-77
2023/04/14 03:57:03;;;;;;;3.63;1.08;;;22.40;99.90;;;;;;5130044;27;20766;-77
2023/04/14 03:59:35;;;;;;;1.98;0.80;;;22.40;99.90;;;;;;5133294;27;20273;-78
2023/04/14 04:02:07;;;;;;;5.30;1.40;;;22.50;99.90;;;;;;5129441;27;20700;-78
2023/04/14 04:04:38;;;;;;;6.45;1.00;;;22.40;99.90;;;;;;5128866;27;20190;-78
2023/04/14 04:07:15;;;;;;;4.63;1.00;;;22.40;99.90;;;;;;5133190;27;20221;-78
2023/04/14 04:09:47;;;;;;;5.22;0.82;;;22.40;99.90;;;;;;5114057;28;20233;-78
2023/04/14 04:12:21;;;;;;;2.33;0.80;;;22.30;99.90;;;;;;5122180;27;20220;-78
2023/04/14 04:14:52;;;;;;;3.55;0.90;;;22.30;99.90;;;;;;5132466;27;20665;-77
2023/04/14 04:17:26;;;;;;;3.08;0.70;;;22.30;99.90;;;;;;5133869;27;20198;-78
2023/04/14 04:19:58;;;;;;;6.10;0.93;;;22.20;99.90;;;;;;5132894;27;20198;-77
2023/04/14 04:22:32;;;;;;;3.45;0.82;;;22.20;99.90;;;;;;5126130;27;20198;-78
2023/04/14 04:25:03;;;;;;;4.25;0.95;;;22.20;99.90;;;;;;5132909;27;20233;-78
2023/04/14 04:27:35;;;;;;;3.60;0.80;;;22.10;99.90;;;;;;5132591;27;20229;-78
2023/04/14 04:30:08;;;;;;;4.63;0.98;;;22.00;99.90;;;;;;5132876;27;20650;-77
2023/04/14 04:32:40;;;;;;;5.57;0.93;;;22.00;99.90;;;;;;5132420;27;20436;-78
2023/04/14 04:35:13;;;;;;;5.00;0.80;;;22.00;99.90;;;;;;5124370;27;20202;-77
2023/04/14 04:37:48;;;;;;;5.43;1.20;;;22.00;99.90;;;;;;5131538;27;20201;-78
2023/04/14 04:40:19;;;;;;;2.28;0.63;;;22.00;99.90;;;;;;5133022;27;20193;-78
2023/04/14 04:42:51;;;;;;;2.60;0.70;;;22.00;99.90;;;;;;5128584;27;20638;-78
2023/04/14 04:45:46;;;;;;;3.13;0.70;;;22.00;99.90;;;;;;5134402;27;20198;-78
2023/04/14 04:48:17;;;;;;;5.30;1.00;;;22.00;99.90;;;;;;5127803;27;20198;-78
2023/04/14 04:50:48;;;;;;;3.85;0.82;;;21.90;99.90;;;;;;5134120;27;20194;-78
2023/04/14 04:53:21;;;;;;;7.53;1.20;;;22.00;99.90;;;;;;5131966;27;20194;-78
2023/04/14 04:55:52;;;;;;;4.13;1.10;;;22.10;99.90;;;;;;5133322;27;20190;-78
2023/04/14 04:58:28;;;;;;;3.20;0.80;;;22.20;99.90;;;;;;5132011;27;20201;-78
2023/04/14 05:00:59;;;;;;;3.10;0.90;;;22.10;99.90;;;;;;5132811;27;20194;-78
2023/04/14 05:03:30;;;;;;;2.15;0.50;;;22.10;99.90;;;;;;5129787;27;20709;-77
2023/04/14 05:06:02;;;;;;;5.10;0.60;;;22.20;99.90;;;;;;5137304;27;20316;-78
2023/04/14 05:08:35;;;;;;;1.58;0.50;;;22.00;99.90;;;;;;5133706;27;20198;-78
2023/04/14 05:11:07;;;;;;;4.20;0.70;;;21.70;99.90;;;;;;5134976;27;20218;-78
2023/04/14 05:13:38;;;;;;;1.40;0.70;;;21.70;99.90;;;;;;5131267;27;20197;-78
2023/04/14 05:16:10;;;;;;;2.60;0.90;;;21.60;99.90;;;;;;5113183;28;20194;-78
2023/04/14 05:18:42;;;;;;;3.92;0.95;;;21.40;99.90;;;;;;5127528;27;20194;-78
2023/04/14 05:21:13;;;;;;;2.33;0.77;;;21.30;99.90;;;;;;5143075;27;20200;-78
2023/04/14 05:23:47;;;;;;;2.10;0.70;;;21.20;99.90;;;;;;5136663;27;20249;-78
2023/04/14 05:26:18;;;;;;;2.35;0.90;;;21.10;99.90;;;;;;5141007;27;20222;-78
2023/04/14 05:28:50;;;;;;;2.65;0.80;;;21.00;99.90;;;;;;5136190;27;20190;-78
2023/04/14 05:31:21;;;;;;;6.38;1.00;;;21.00;99.90;;;;;;5140030;27;20198;-77
2023/04/14 05:33:52;;;;;;;6.10;1.10;;;20.90;99.90;;;;;;5134890;27;20197;-78
2023/04/14 05:36:23;;;;;;;4.85;1.13;;;20.90;99.90;;;;;;5138885;27;20201;-78
2023/04/14 05:38:56;;;;;;;3.60;0.90;;;20.80;99.90;;;;;;5130474;27;20186;-79
2023/04/14 05:44:14;;;;;;;6.22;1.17;;;20.80;99.90;;;;;;5139441;27;20200;-76
2023/04/14 05:46:45;;;;;;;6.22;0.95;;;20.90;99.90;;;;;;5139736;27;20206;-77
2023/04/14 05:49:16;;;;;;;4.00;1.00;;;21.00;99.90;;;;;;5137323;27;20198;-80
2023/04/14 05:51:48;;;;;;;5.53;1.13;;;21.00;99.90;;;;;;5141205;27;20202;-78
2023/04/14 05:54:22;;;;;;;6.00;1.15;;;21.10;99.90;;;;;;5136718;27;20196;-78
2023/04/14 05:56:53;;;;;;;4.50;1.55;;;21.20;99.90;;;;;;5137050;27;20573;-78
2023/04/14 05:59:25;;;;;;;6.13;1.00;;;21.40;99.90;;;;;;5130000;27;20543;-78
2023/04/14 06:01:57;;;;;;;3.55;1.00;;;21.50;99.90;;;;;;5141909;27;20270;-78
2023/04/14 06:04:28;;;;;;;3.75;1.00;;;21.40;99.90;;;;;;5133748;27;20232;-78
2023/04/14 06:06:59;;;;;;;4.25;1.00;;;21.40;99.90;;;;;;5135113;27;20218;-78
2023/04/14 06:09:32;;;;;;;5.82;1.02;;;21.50;99.90;;;;;;5134382;27;20202;-77
2023/04/14 06:12:04;;;;;;;6.47;1.10;;;21.60;99.90;;;;;;5134788;27;20217;-77
2023/04/14 06:14:35;;;;;;;3.63;1.10;;;21.70;99.90;;;;;;5136228;27;20198;-77
2023/04/14 06:17:06;;;;;;;5.40;1.00;;;21.70;99.90;;;;;;5134867;27;20574;-76
2023/04/14 06:19:37;;;;;;;5.50;0.90;;;21.60;99.90;;;;;;5133933;27;20206;-78
2023/04/14 06:22:08;;;;;;;7.65;1.20;;;21.50;99.90;;;;;;5134228;27;20197;-78
2023/04/14 06:24:41;;;;;;;5.03;1.20;;;21.50;99.90;;;;;;5133673;27;20226;-78
2023/04/14 06:27:13;;;;;;;5.88;1.33;;;21.50;99.90;;;;;;5128448;27;20947;-78
2023/04/14 06:29:44;;;;;;;4.47;1.08;;;21.50;99.90;;;;;;5132276;27;20277;-77
2023/04/14 06:32:16;;;;;;;7.60;1.25;;;21.40;99.90;;;;;;5132354;27;20289;-76
2023/04/14 06:34:47;;;;;;;4.35;1.15;;;21.30;99.90;;;;;;5131380;27;20267;-77
2023/04/14 06:37:18;;;;;;;5.80;1.08;;;21.20;99.90;;;;;;5130546;27;20725;-77
2023/04/14 06:39:53;;;;;;;3.78;1.10;;;21.20;99.90;;;;;;5125979;27;20193;-79
2023/04/14 06:42:24;;;;;;;6.35;1.10;;;21.20;99.90;;;;;;5130382;27;20216;-78
2023/04/14 06:44:55;;;;;;;6.05;1.17;;;21.10;99.90;;;;;;5131189;27;20528;-78
2023/04/14 06:47:26;;;;;;;4.03;1.10;;;21.10;99.90;;;;;;5129282;27;20230;-78
2023/04/14 06:49:57;;;;;;;6.18;1.20;;;21.10;99.90;;;;;;5131789;27;20194;-77
2023/04/14 06:52:28;;;;;;;4.72;1.20;;;21.00;99.90;;;;;;5129868;27;20202;-77
2023/04/14 06:55:01;;;;;;;5.32;1.33;;;21.00;99.90;;;;;;5130781;27;20194;-76
2023/04/14 06:57:32;;;;;;;6.97;2.00;;;20.90;99.90;;;;;;5124794;27;20199;-78
2023/04/14 07:00:04;;;;;;;11.95;2.03;;;20.90;99.90;;;;;;5128702;27;20195;-77
2023/04/14 07:02:35;;;;;;;7.95;1.63;;;20.90;99.90;;;;;;5124535;27;20198;-77
2023/04/14 07:05:06;;;;;;;4.55;1.20;;;20.90;99.90;;;;;;5126626;27;20648;-77
2023/04/14 07:07:39;;;;;;;5.60;1.30;;;20.80;99.90;;;;;;5125122;27;20225;-77
2023/04/14 07:10:12;;;;;;;4.68;1.40;;;20.80;99.90;;;;;;5114658;27;20270;-76
2023/04/14 07:12:43;;;;;;;3.80;1.60;;;20.80;99.90;;;;;;5119613;27;20320;-76
2023/04/14 07:15:15;;;;;;;5.65;1.90;;;20.70;99.90;;;;;;5117850;27;20198;-77
2023/04/14 07:17:46;;;;;;;5.22;1.73;;;20.70;99.90;;;;;;5114584;28;20198;-76
2023/04/14 07:20:17;;;;;;;12.30;4.45;;;20.80;99.90;;;;;;5132484;27;20210;-76
2023/04/14 07:22:48;;;;;;;9.05;2.65;;;20.70;99.90;;;;;;5132908;27;20610;-76
2023/04/14 07:25:21;;;;;;;10.75;3.72;;;20.60;99.90;;;;;;5131568;27;20229;-76
2023/04/14 07:27:52;;;;;;;10.00;3.53;;;20.60;99.90;;;;;;5126878;27;20616;-76
2023/04/14 07:30:24;;;;;;;7.07;2.03;;;20.60;99.90;;;;;;5130593;27;20197;-77
2023/04/14 07:32:55;;;;;;;5.70;2.30;;;20.60;99.90;;;;;;5130173;27;20196;-76
2023/04/14 07:35:27;;;;;;;9.90;2.97;;;20.50;99.90;;;;;;5128542;27;20197;-76
2023/04/14 07:37:59;;;;;;;8.85;3.15;;;20.60;99.90;;;;;;5128139;27;20190;-76
2023/04/14 07:40:32;;;;;;;7.20;2.70;;;20.60;99.90;;;;;;5118998;27;20193;-77
2023/04/14 07:43:03;;;;;;;10.38;4.05;;;20.50;99.90;;;;;;5125314;27;20575;-78
2023/04/14 07:45:34;;;;;;;11.13;5.18;;;20.50;99.90;;;;;;5127842;27;20198;-76
2023/04/14 07:48:05;;;;;;;12.18;7.80;;;20.50;99.90;;;;;;5129625;27;20221;-76
2023/04/14 07:50:36;;;;;;;12.48;4.88;;;20.50;99.90;;;;;;5131271;27;20200;-76
2023/04/14 07:53:07;;;;;;;8.20;3.92;;;20.50;99.90;;;;;;5127507;27;20202;-76
2023/04/14 07:55:41;;;;;;;19.33;6.35;;;20.50;99.90;;;;;;5130541;27;20201;-76
2023/04/14 07:58:12;;;;;;;22.50;8.05;;;20.40;99.90;;;;;;5128037;27;20190;-76
2023/04/14 08:00:43;;;;;;;10.68;4.30;;;20.40;99.90;;;;;;5118938;27;20198;-76
2023/04/14 08:03:15;;;;;;;6.05;1.98;;;20.40;99.90;;;;;;5114946;28;20566;-76
2023/04/14 08:05:46;;;;;;;6.68;2.30;;;20.40;99.90;;;;;;5131032;27;20302;-77
2023/04/14 08:08:18;;;;;;;12.13;4.55;;;20.40;99.90;;;;;;5123514;27;20734;-76
2023/04/14 08:10:51;;;;;;;6.10;3.00;;;20.40;99.90;;;;;;5128814;27;20246;-77
2023/04/14 08:13:22;;;;;;;8.80;3.83;;;20.40;99.90;;;;;;5129428;27;20648;-76
2023/04/14 08:15:53;;;;;;;10.65;3.70;;;20.40;99.90;;;;;;5130288;27;20562;-76
2023/04/14 08:18:24;;;;;;;9.40;3.55;;;20.40;99.90;;;;;;5128252;27;20660;-76
2023/04/14 08:20:56;;;;;;;9.93;3.40;;;20.40;99.90;;;;;;5130137;27;20665;-75
2023/04/14 08:23:27;;;;;;;12.15;8.30;;;20.40;99.90;;;;;;5133902;27;20194;-76
2023/04/14 08:26:00;;;;;;;36.53;26.48;;;20.40;99.90;;;;;;5133835;27;20190;-77
2023/04/14 08:28:31;;;;;;;11.88;6.80;;;20.30;99.90;;;;;;5128468;27;20225;-76
2023/04/14 08:31:02;;;;;;;9.50;2.78;;;20.30;99.90;;;;;;5132766;27;20220;-76
2023/04/14 08:33:34;;;;;;;7.45;2.67;;;20.30;99.90;;;;;;5134008;27;20198;-76
2023/04/14 08:36:05;;;;;;;8.25;3.10;;;20.30;99.90;;;;;;5120672;27;20195;-76
2023/04/14 08:38:36;;;;;;;8.13;3.40;;;20.20;99.90;;;;;;5132502;27;20214;-75
2023/04/14 08:41:13;;;;;;;6.88;2.90;;;20.20;99.90;;;;;;5132757;27;20190;-76
2023/04/14 08:43:45;;;;;;;4.72;1.95;;;20.10;99.90;;;;;;5134034;27;20193;-76
2023/04/14 08:46:17;;;;;;;13.25;3.10;;;20.20;99.90;;;;;;5133770;27;20652;-77
2023/04/14 08:48:50;;;;;;;12.02;3.00;;;20.10;99.90;;;;;;5129733;27;20226;-76
2023/04/14 08:51:30;;;;;;;5.95;1.50;;;20.10;99.90;;;;;;5132407;27;20198;-77
2023/04/14 08:54:02;;;;;;;3.33;1.10;;;20.00;99.90;;;;;;5134242;27;20675;-75
2023/04/14 08:56:39;;;;;;;4.65;1.42;;;19.90;99.90;;;;;;5134213;27;20194;-76
2023/04/14 08:59:11;;;;;;;4.75;1.27;;;19.80;99.90;;;;;;5133654;27;20209;-76
2023/04/14 09:01:42;;;;;;;5.15;1.55;;;19.80;99.90;;;;;;5136305;27;20193;-76
2023/04/14 09:04:15;;;;;;;5.32;1.40;;;19.70;99.90;;;;;;5133165;27;20197;-76
2023/04/14 09:06:47;;;;;;;6.40;2.10;;;19.70;99.90;;;;;;5133191;27;20190;-76
2023/04/14 09:09:19;;;;;;;4.55;2.15;;;19.60;99.90;;;;;;5124519;27;20226;-76
2023/04/14 09:11:53;;;;;;;5.90;2.70;;;19.60;99.90;;;;;;5117930;27;20218;-76
2023/04/14 09:14:25;;;;;;;8.90;4.50;;;19.60;99.90;;;;;;5123595;27;20194;-76
2023/04/14 09:16:56;;;;;;;9.80;4.53;;;19.60;99.90;;;;;;5112336;27;20665;-76
2023/04/14 09:19:27;;;;;;;7.95;4.55;;;19.50;99.90;;;;;;5133320;27;20194;-76
2023/04/14 09:22:17;;;;;;;9.88;3.83;;;19.60;99.90;;;;;;5132087;27;20197;-76
2023/04/14 09:24:48;;;;;;;10.57;3.97;;;19.50;99.90;;;;;;5131972;27;20232;-77
2023/04/14 09:27:21;;;;;;;6.72;3.38;;;19.50;99.90;;;;;;5132814;27;20239;-76
2023/04/14 09:29:53;;;;;;;6.82;2.72;;;19.50;99.90;;;;;;5133281;27;20198;-76
2023/04/14 09:32:25;;;;;;;7.47;2.15;;;19.50;99.90;;;;;;5122195;27;20186;-76
2023/04/14 09:34:56;;;;;;;7.68;2.85;;;19.50;99.90;;;;;;5130901;27;20198;-76
2023/04/14 09:37:27;;;;;;;7.85;3.38;;;19.50;99.90;;;;;;5128460;27;20201;-76
2023/04/14 09:39:59;;;;;;;11.75;3.88;;;19.50;99.90;;;;;;5133126;27;20198;-77
2023/04/14 09:42:45;;;;;;;9.25;2.45;;;19.40;99.90;;;;;;5134092;27;20198;-77
2023/04/14 09:45:18;;;;;;;5.72;2.10;;;19.40;99.90;;;;;;5131108;27;20653;-77
2023/04/14 09:47:49;;;;;;;6.07;2.83;;;19.30;99.90;;;;;;5131934;27;20222;-77
2023/04/14 09:50:20;;;;;;;9.32;3.17;;;19.30;99.90;;;;;;5132517;27;20195;-77
2023/04/14 09:52:52;;;;;;;6.38;2.20;;;19.30;99.90;;;;;;5132144;27;20216;-77
2023/04/14 09:55:23;;;;;;;5.80;2.28;;;19.30;99.90;;;;;;5131568;27;20193;-77
2023/04/14 09:57:57;;;;;;;11.30;3.92;;;19.30;99.90;;;;;;5131444;27;20565;-76
2023/04/14 10:00:28;;;;;;;9.88;4.03;;;19.30;99.90;;;;;;5128023;27;20201;-76
2023/04/14 10:03:00;;;;;;;5.95;1.92;;;19.30;99.90;;;;;;5125956;27;20194;-77
2023/04/14 10:05:32;;;;;;;5.28;1.55;;;19.30;99.90;;;;;;5129211;27;20195;-77
2023/04/14 10:08:06;;;;;;;7.28;1.92;;;19.30;99.90;;;;;;5131957;27;20233;-76
2023/04/14 10:10:37;;;;;;;13.07;3.67;;;19.30;99.90;;;;;;5131078;27;20675;-76
2023/04/14 10:13:13;;;;;;;11.73;2.38;;;19.30;99.90;;;;;;5126333;27;20230;-76
2023/04/14 10:15:45;;;;;;;7.50;2.00;;;19.30;99.90;;;;;;5132163;27;20629;-76
2023/04/14 10:18:16;;;;;;;7.35;1.85;;;19.30;99.90;;;;;;5128463;27;20221;-76
2023/04/14 10:20:47;;;;;;;12.15;2.50;;;19.30;99.90;;;;;;5130521;27;20201;-76
2023/04/14 10:23:19;;;;;;;8.13;2.22;;;19.30;99.90;;;;;;5130126;27;20194;-76
2023/04/14 10:25:50;;;;;;;7.03;2.67;;;19.30;99.90;;;;;;5127634;27;20221;-76
2023/04/14 10:28:25;;;;;;;18.92;6.68;;;19.30;99.90;;;;;;5115640;27;20602;-76
2023/04/14 10:30:56;;;;;;;15.40;5.30;;;19.30;99.90;;;;;;5136334;27;20193;-76
2023/04/14 10:33:31;;;;;;;12.57;4.18;;;19.30;99.90;;;;;;5127834;27;20201;-76
2023/04/14 10:36:02;;;;;;;10.63;3.53;;;19.30;99.90;;;;;;5122403;27;20198;-76
2023/04/14 10:38:44;;;;;;;8.65;2.85;;;19.30;99.90;;;;;;5129840;27;20528;-76
2023/04/14 10:41:15;;;;;;;6.72;2.70;;;19.30;99.90;;;;;;5132220;27;20189;-75
2023/04/14 10:43:48;;;;;;;8.20;2.50;;;19.30;99.90;;;;;;5128635;27;20190;-76
2023/04/14 10:46:20;;;;;;;5.65;1.90;;;19.30;99.90;;;;;;5128793;27;20197;-76
2023/04/14 10:48:54;;;;;;;9.20;2.42;;;19.30;99.90;;;;;;5125361;27;20688;-75
2023/04/14 10:51:37;;;;;;;5.93;1.95;;;19.30;99.90;;;;;;5125770;27;20198;-76
2023/04/14 10:54:19;;;;;;;6.95;1.80;;;19.30;99.90;;;;;;5127196;27;20656;-77
2023/04/14 10:57:17;;;;;;;5.78;1.67;;;19.20;99.90;;;;;;5130960;27;20271;-77
2023/04/14 10:59:55;;;;;;;4.88;1.80;;;19.20;99.90;;;;;;5095338;27;20236;-76
2023/04/14 11:02:27;;;;;;;4.00;1.42;;;19.20;99.90;;;;;;5128070;27;20201;-76
2023/04/14 11:05:07;;;;;;;4.85;1.83;;;19.20;99.90;;;;;;5112097;28;20198;-76
2023/04/14 11:07:45;;;;;;;4.57;2.03;;;19.20;99.90;;;;;;5118133;27;20194;-77
2023/04/14 11:10:33;;;;;;;6.28;2.15;;;19.20;99.90;;;;;;5131372;27;20202;-76
2023/04/14 11:13:08;;;;;;;4.95;2.00;;;19.20;99.90;;;;;;5127380;27;20214;-76
2023/04/14 11:15:58;;;;;;;4.38;1.80;;;19.20;99.90;;;;;;5130287;27;20198;-76
2023/04/14 11:18:41;;;;;;;3.65;1.80;;;19.20;99.90;;;;;;5129062;27;20205;-76
2023/04/14 11:21:13;;;;;;;3.70;1.67;;;19.10;99.90;;;;;;5123186;27;20285;-76
2023/04/14 11:23:46;;;;;;;5.25;1.98;;;19.10;99.90;;;;;;5123175;27;20229;-76
2023/04/14 11:26:17;;;;;;;4.72;1.88;;;19.10;99.90;;;;;;5130520;28;20194;-76
2023/04/14 11:28:48;;;;;;;5.43;2.08;;;19.00;99.90;;;;;;5126108;27;20559;-76
2023/04/14 11:31:21;;;;;;;4.95;1.90;;;19.00;99.90;;;;;;5130215;27;20539;-76
2023/04/14 11:33:52;;;;;;;6.13;1.65;;;19.00;99.90;;;;;;5129368;27;20221;-75
2023/04/14 11:36:23;;;;;;;5.88;1.95;;;19.00;99.90;;;;;;5119930;28;20198;-76
2023/04/14 11:38:55;;;;;;;5.57;2.30;;;18.90;99.90;;;;;;5130270;27;20653;-76
2023/04/14 11:41:28;;;;;;;6.18;2.13;;;18.90;99.90;;;;;;5123602;27;20186;-75
2023/04/14 11:44:00;;;;;;;6.15;1.98;;;18.80;99.90;;;;;;5128239;27;20197;-76
2023/04/14 11:46:34;;;;;;;5.45;1.75;;;18.80;99.90;;;;;;5129997;27;20205;-76
2023/04/14 11:49:07;;;;;;;5.75;1.85;;;18.70;99.90;;;;;;5130293;27;20214;-76
2023/04/14 11:51:39;;;;;;;3.75;1.90;;;18.80;99.90;;;;;;5129849;27;20568;-76
2023/04/14 11:54:10;;;;;;;4.38;1.48;;;18.80;99.90;;;;;;5120797;28;20201;-77
2023/04/14 11:56:41;;;;;;;4.50;1.75;;;18.80;99.90;;;;;;5125878;27;20289;-77
2023/04/14 11:59:12;;;;;;;4.35;1.48;;;18.80;99.90;;;;;;5132473;27;20198;-76
2023/04/14 12:01:50;;;;;;;4.63;1.50;;;18.70;99.90;;;;;;5132856;27;20189;-76
2023/04/14 12:04:23;;;;;;;5.18;1.60;;;18.70;99.90;;;;;;5123107;27;20201;-75
2023/04/14 12:06:54;;;;;;;3.45;1.55;;;18.70;99.90;;;;;;5134485;27;20198;-76
2023/04/14 12:09:30;;;;;;;4.70;1.45;;;18.70;99.90;;;;;;5131224;27;20311;-76
2023/04/14 12:12:01;;;;;;;6.30;1.60;;;18.60;99.90;;;;;;5134967;27;20224;-76
2023/04/14 12:14:32;;;;;;;3.88;1.38;;;18.70;99.90;;;;;;5132450;27;20255;-75
2023/04/14 12:17:07;;;;;;;2.92;1.40;;;18.60;99.90;;;;;;5133554;27;20295;-75
2023/04/14 12:19:39;;;;;;;4.30;1.58;;;18.60;99.90;;;;;;5131886;27;20200;-76
2023/04/14 12:22:10;;;;;;;3.97;1.67;;;18.60;99.90;;;;;;5114129;28;20194;-75
2023/04/14 12:24:42;;;;;;;4.25;1.65;;;18.50;99.90;;;;;;5124055;27;20299;-76
2023/04/14 12:27:18;;;;;;;4.18;1.55;;;18.50;99.90;;;;;;5133520;27;20205;-76
2023/04/14 12:29:49;;;;;;;4.55;1.80;;;18.40;99.90;;;;;;5134334;27;20640;-76
2023/04/14 12:32:24;;;;;;;5.82;1.80;;;18.40;99.90;;;;;;5135966;27;20194;-76
2023/04/14 12:35:00;;;;;;;6.75;1.80;;;18.40;99.90;;;;;;5131819;27;20193;-75
2023/04/14 12:37:31;;;;;;;6.35;1.80;;;18.40;99.90;;;;;;5133301;27;20190;-76
2023/04/14 12:40:05;;;;;;;3.35;1.40;;;18.40;99.90;;;;;;5134961;27;20217;-76
2023/04/14 12:42:50;;;;;;;3.85;1.40;;;18.40;99.90;;;;;;5129571;27;20186;-75
2023/04/14 12:45:21;;;;;;;5.53;1.40;;;18.40;99.90;;;;;;5126099;27;20212;-75
2023/04/14 12:47:59;;;;;;;2.95;1.50;;;18.30;99.90;;;;;;5122059;27;20652;-76
2023/04/14 12:50:32;;;;;;;3.42;1.30;;;18.30;99.90;;;;;;5134775;27;20228;-75
2023/04/14 12:53:03;;;;;;;4.10;1.33;;;18.30;99.90;;;;;;5131264;27;20209;-75
2023/04/14 12:55:35;;;;;;;3.70;1.25;;;18.30;99.90;;;;;;5134226;27;20592;-75
2023/04/14 12:58:06;;;;;;;4.40;1.50;;;18.20;99.90;;;;;;5131814;27;20560;-76
2023/04/14 13:00:38;;;;;;;3.63;1.38;;;18.20;99.90;;;;;;5132643;27;20202;-75
2023/04/14 13:03:11;;;;;;;5.20;1.60;;;18.20;99.90;;;;;;5119169;27;20199;-75
2023/04/14 13:05:43;;;;;;;4.57;1.80;;;18.20;99.90;;;;;;5125804;27;20198;-76
2023/04/14 13:08:14;;;;;;;6.05;1.70;;;18.20;99.90;;;;;;5124882;27;20194;-77
2023/04/14 13:10:45;;;;;;;5.13;1.80;;;18.20;99.90;;;;;;5134014;27;20204;-76
2023/04/14 13:13:16;;;;;;;5.25;1.70;;;18.10;99.90;;;;;;5132991;27;20194;-76
2023/04/14 13:15:47;;;;;;;3.95;1.88;;;18.10;99.90;;;;;;5132571;27;20205;-75
2023/04/14 13:18:20;;;;;;;7.20;1.92;;;18.10;99.90;;;;;;5130070;27;20197;-75